Time;durP1;ratioP1;P1;durP2;ratioP2;P2;SDS_P1;SDS_P2;PMS_P1;PMS_P2;Temp;Humidity;BMP_temperature;BMP_pressure;BME280_temperature;BME280_humidity;BME280_pressure;Samples;Min_cycle;Max_cycle;Signal;HPM_P1;HPM_P2
2022/03/28 00:02:21;;;;;;;6.70;3.25;;;;;;;7.99;29.05;102944.37;1775656;80;21478;-65
2022/03/28 00:04:49;;;;;;;7.40;4.03;;;;;;;7.97;28.91;102946.94;1774644;80;21506;-65
2022/03/28 00:07:16;;;;;;;7.15;3.42;;;;;;;7.96;28.93;102939.98;1761619;80;21038;-65
2022/03/28 00:09:44;;;;;;;7.30;3.27;;;;;;;7.94;28.96;102945.55;1774617;80;20987;-65
2022/03/28 00:12:13;;;;;;;4.95;3.12;;;;;;;7.90;29.13;102948.91;1774467;80;21566;-65
2022/03/28 00:14:40;;;;;;;9.50;3.92;;;;;;;7.88;29.26;102944.52;1777268;80;21554;-65
2022/03/28 00:17:08;;;;;;;11.85;3.77;;;;;;;7.87;29.34;102943.64;1768076;80;21010;-65
2022/03/28 00:19:37;;;;;;;8.80;3.50;;;;;;;7.85;29.50;102937.54;1771370;80;21117;-65
2022/03/28 00:22:05;;;;;;;6.08;3.55;;;;;;;7.83;29.69;102947.44;1765297;80;21034;-65
2022/03/28 00:24:32;;;;;;;5.60;3.27;;;;;;;7.82;29.83;102950.86;1775034;80;20971;-65
2022/03/28 00:26:59;;;;;;;8.05;3.60;;;;;;;7.79;29.87;102946.47;1774681;80;21108;-65
2022/03/28 00:29:26;;;;;;;6.15;3.02;;;;;;;7.78;29.90;102946.03;1742879;80;21034;-64
2022/03/28 00:31:54;;;;;;;8.50;4.15;;;;;;;7.77;30.04;102948.14;1759695;80;21049;-65
2022/03/28 00:34:23;;;;;;;6.33;3.27;;;;;;;7.77;30.14;102952.03;1773661;80;21029;-65
2022/03/28 00:36:50;;;;;;;14.20;3.92;;;;;;;7.76;30.10;102952.00;1772433;80;20998;-65
2022/03/28 00:39:21;;;;;;;6.22;3.00;;;;;;;7.75;29.89;102950.27;1782256;80;21007;-65
2022/03/28 00:41:50;;;;;;;8.90;3.47;;;;;;;7.75;30.01;102947.23;1774953;80;21516;-65
2022/03/28 00:44:17;;;;;;;6.87;3.27;;;;;;;7.73;29.79;102951.95;1773789;80;21030;-65
2022/03/28 00:46:44;;;;;;;6.22;3.15;;;;;;;7.70;29.73;102948.85;1771766;80;21537;-65
2022/03/28 00:49:11;;;;;;;11.25;3.02;;;;;;;7.68;29.43;102937.58;1773752;80;21471;-66
2022/03/28 00:51:39;;;;;;;4.85;3.22;;;;;;;7.65;29.43;102937.48;1770642;80;21029;-65
2022/03/28 00:54:06;;;;;;;8.33;3.92;;;;;;;7.63;29.51;102940.45;1777113;80;21030;-65
2022/03/28 00:56:34;;;;;;;12.33;4.72;;;;;;;7.61;29.63;102935.66;1773860;80;21066;-65
2022/03/28 00:59:04;;;;;;;12.00;3.60;;;;;;;7.59;29.67;102937.33;1771753;80;21013;-65
2022/03/28 01:01:31;;;;;;;10.28;3.85;;;;;;;7.58;29.61;102939.89;1771820;80;20990;-65
2022/03/28 01:04:00;;;;;;;7.80;3.20;;;;;;;7.55;29.61;102930.73;1771701;80;21522;-65
2022/03/28 01:06:28;;;;;;;8.25;3.35;;;;;;;7.57;29.53;102935.53;1765512;80;21030;-65
2022/03/28 01:08:55;;;;;;;7.53;3.12;;;;;;;7.60;29.64;102940.81;1773845;80;21577;-65
2022/03/28 01:11:24;;;;;;;10.18;3.35;;;;;;;7.59;29.64;102938.63;1775101;80;21022;-65
2022/03/28 01:13:52;;;;;;;4.92;3.00;;;;;;;7.59;29.56;102941.22;1775021;80;21085;-65
2022/03/28 01:16:20;;;;;;;7.20;2.92;;;;;;;7.58;29.53;102942.08;1761533;80;21061;-65
2022/03/28 01:18:48;;;;;;;6.78;3.27;;;;;;;7.59;29.54;102936.45;1775020;80;21034;-65
2022/03/28 01:21:18;;;;;;;5.95;2.87;;;;;;;7.57;29.59;102933.83;1773551;80;21038;-65
2022/03/28 01:23:46;;;;;;;5.92;3.02;;;;;;;7.53;29.67;102932.41;1772128;80;21561;-65
2022/03/28 01:26:15;;;;;;;10.63;3.58;;;;;;;7.51;29.53;102929.80;1771066;80;21019;-67
2022/03/28 01:28:42;;;;;;;6.85;3.25;;;;;;;7.50;29.55;102933.20;1770817;80;21026;-65
2022/03/28 01:31:10;;;;;;;6.55;3.10;;;;;;;7.48;29.50;102938.77;1776627;80;21494;-65
2022/03/28 01:33:37;;;;;;;7.45;3.17;;;;;;;7.47;29.48;102933.14;1773351;80;21046;-65
2022/03/28 01:36:04;;;;;;;8.53;3.47;;;;;;;7.47;29.46;102936.14;1771646;80;21530;-65
2022/03/28 01:38:32;;;;;;;6.72;2.72;;;;;;;7.46;29.54;102935.70;1761103;80;21509;-67
2022/03/28 01:40:59;;;;;;;5.67;2.77;;;;;;;7.45;29.51;102929.64;1774808;80;21529;-65
2022/03/28 01:43:27;;;;;;;4.75;2.92;;;;;;;7.45;29.48;102928.75;1775247;80;21050;-65
2022/03/28 01:45:55;;;;;;;5.97;2.95;;;;;;;7.45;29.47;102934.82;1774183;80;20998;-65
2022/03/28 01:48:22;;;;;;;6.22;2.80;;;;;;;7.44;29.37;102938.23;1771708;80;21085;-65
2022/03/28 01:50:49;;;;;;;5.20;2.92;;;;;;;7.44;29.17;102936.09;1761102;80;21018;-66
2022/03/28 01:53:17;;;;;;;6.87;3.72;;;;;;;7.40;29.22;102936.40;1777832;80;21030;-66
2022/03/28 01:55:44;;;;;;;6.42;2.98;;;;;;;7.39;29.09;102938.55;1770100;80;21037;-65
2022/03/28 01:58:12;;;;;;;7.35;3.15;;;;;;;7.38;29.28;102943.25;1776398;80;21014;-65
2022/03/28 02:00:40;;;;;;;7.45;3.72;;;;;;;7.37;29.27;102941.52;1774015;80;21046;-65
2022/03/28 02:03:07;;;;;;;5.90;2.65;;;;;;;7.38;29.18;102947.14;1771540;80;21057;-65
2022/03/28 02:05:36;;;;;;;8.53;3.10;;;;;;;7.36;29.07;102948.41;1763643;80;21034;-65
2022/03/28 02:08:04;;;;;;;3.92;2.55;;;;;;;7.36;29.24;102939.75;1770135;80;21112;-65
2022/03/28 02:10:32;;;;;;;7.22;3.02;;;;;;;7.36;29.22;102941.05;1767174;80;20963;-65
2022/03/28 02:12:59;;;;;;;6.40;2.58;;;;;;;7.36;29.25;102950.99;1771177;80;21074;-65
2022/03/28 02:15:26;;;;;;;6.75;3.10;;;;;;;7.38;29.29;102953.61;1766971;80;21534;-65
2022/03/28 02:17:54;;;;;;;6.70;2.60;;;;;;;7.39;29.49;102947.61;1774610;80;21034;-65
2022/03/28 02:20:21;;;;;;;4.42;2.70;;;;;;;7.40;29.75;102957.12;1774853;80;21061;-65
2022/03/28 02:22:48;;;;;;;4.12;2.77;;;;;;;7.42;29.91;102955.45;1772553;80;21030;-65
2022/03/28 02:25:15;;;;;;;5.90;2.83;;;;;;;7.44;29.74;102948.59;1771512;80;21054;-65
2022/03/28 02:27:43;;;;;;;9.65;3.35;;;;;;;7.46;29.70;102957.28;1771624;80;21073;-66
2022/03/28 02:30:12;;;;;;;9.18;3.62;;;;;;;7.48;29.68;102956.05;1771811;80;20966;-65
2022/03/28 02:32:39;;;;;;;14.25;4.97;;;;;;;7.48;29.61;102960.78;1770907;80;21029;-65
2022/03/28 02:35:08;;;;;;;10.45;4.60;;;;;;;7.49;29.03;102954.78;1774898;80;21037;-65
2022/03/28 02:37:36;;;;;;;14.50;5.05;;;;;;;7.50;28.81;102956.52;1770456;80;21541;-66
2022/03/28 02:40:04;;;;;;;9.68;4.42;;;;;;;7.52;28.95;102957.47;1767334;80;21023;-65
2022/03/28 02:42:32;;;;;;;7.37;3.00;;;;;;;7.55;28.98;102947.58;1772015;80;21005;-65
2022/03/28 02:44:59;;;;;;;4.95;2.65;;;;;;;7.57;28.93;102947.19;1771546;80;21566;-65
2022/03/28 02:47:26;;;;;;;8.25;2.72;;;;;;;7.57;29.02;102946.78;1773311;80;21045;-65
2022/03/28 02:49:55;;;;;;;3.75;2.65;;;;;;;7.53;29.15;102942.36;1774791;80;21010;-65
2022/03/28 02:52:22;;;;;;;2.87;2.27;;;;;;;7.49;29.20;102936.65;1775132;80;21506;-65
2022/03/28 02:54:50;;;;;;;7.30;2.95;;;;;;;7.48;29.04;102950.42;1771987;80;21042;-65
2022/03/28 02:57:17;;;;;;;3.83;2.33;;;;;;;7.47;29.12;102943.50;1773717;80;21113;-65
2022/03/28 02:59:45;;;;;;;9.05;2.37;;;;;;;7.47;29.30;102946.09;1773971;80;21475;-65
2022/03/28 03:02:13;;;;;;;5.00;2.77;;;;;;;7.45;29.46;102952.95;1774944;80;21003;-65
2022/03/28 03:04:41;;;;;;;4.62;2.67;;;;;;;7.47;29.53;102948.69;1775199;80;20998;-65
2022/03/28 03:07:08;;;;;;;4.78;2.17;;;;;;;7.47;29.44;102944.80;1772505;80;21018;-65
2022/03/28 03:09:36;;;;;;;5.67;2.70;;;;;;;7.49;29.42;102941.83;1763022;80;21534;-65
2022/03/28 03:12:04;;;;;;;6.10;2.60;;;;;;;7.51;29.41;102948.34;1772584;80;21128;-65
2022/03/28 03:14:33;;;;;;;6.25;2.15;;;;;;;7.52;29.42;102954.88;1771534;80;21066;-65
2022/03/28 03:17:01;;;;;;;7.75;3.83;;;;;;;7.50;29.79;102957.81;1766143;80;21026;-65
2022/03/28 03:19:29;;;;;;;4.78;2.70;;;;;;;7.48;30.25;102958.19;1771463;80;21486;-65
2022/03/28 03:21:56;;;;;;;4.15;2.15;;;;;;;7.48;30.24;102965.96;1772180;80;21104;-65
2022/03/28 03:24:24;;;;;;;8.43;2.95;;;;;;;7.48;30.22;102965.96;1761218;80;21045;-65
2022/03/28 03:26:51;;;;;;;4.28;2.60;;;;;;;7.46;29.97;102965.05;1774868;80;21010;-65
2022/03/28 03:29:18;;;;;;;7.05;3.00;;;;;;;7.46;29.96;102970.23;1773373;80;21463;-65
2022/03/28 03:31:47;;;;;;;4.78;2.60;;;;;;;7.46;29.96;102968.94;1772162;80;21030;-65
2022/03/28 03:34:14;;;;;;;4.92;2.58;;;;;;;7.47;29.78;102970.70;1773726;80;21037;-65
2022/03/28 03:36:43;;;;;;;3.25;2.10;;;;;;;7.49;29.56;102968.14;1774739;80;21510;-65
2022/03/28 03:39:10;;;;;;;3.95;2.67;;;;;;;7.48;29.50;102960.78;1761177;80;21038;-65
2022/03/28 03:41:39;;;;;;;4.85;2.58;;;;;;;7.49;29.65;102963.84;1774162;80;21089;-65
2022/03/28 03:44:06;;;;;;;6.62;2.50;;;;;;;7.48;29.80;102968.55;1772002;80;21082;-65
2022/03/28 03:46:34;;;;;;;4.03;2.67;;;;;;;7.48;30.04;102962.08;1770332;80;21038;-66
2022/03/28 03:49:01;;;;;;;5.20;2.90;;;;;;;7.47;30.20;102969.41;1774315;80;21005;-65
2022/03/28 03:51:29;;;;;;;4.45;2.60;;;;;;;7.47;30.34;102965.94;1774784;80;21498;-65
2022/03/28 03:53:57;;;;;;;8.13;3.05;;;;;;;7.46;30.28;102972.82;1774640;80;21026;-65
2022/03/28 03:56:25;;;;;;;6.05;2.77;;;;;;;7.45;30.37;102977.55;1770089;80;21145;-65
2022/03/28 03:58:53;;;;;;;6.15;2.70;;;;;;;7.43;30.49;102972.75;1763537;81;21558;-65
2022/03/28 04:01:22;;;;;;;6.47;2.90;;;;;;;7.41;30.77;102974.44;1762995;81;21526;-65
2022/03/28 04:03:50;;;;;;;6.62;3.25;;;;;;;7.38;31.11;102978.22;1763448;81;21576;-65
2022/03/28 04:06:18;;;;;;;5.08;2.85;;;;;;;7.36;31.35;102978.59;1758662;81;21038;-65
2022/03/28 04:08:46;;;;;;;6.00;3.02;;;;;;;7.32;31.80;102971.58;1766571;81;20987;-66
2022/03/28 04:11:15;;;;;;;6.67;3.55;;;;;;;7.28;32.03;102975.81;1761067;80;21038;-65
2022/03/28 04:13:42;;;;;;;4.92;2.95;;;;;;;7.28;32.29;102974.93;1770362;81;21050;-65
2022/03/28 04:16:11;;;;;;;5.30;2.80;;;;;;;7.31;32.56;102978.91;1753944;81;21306;-65
2022/03/28 04:18:38;;;;;;;7.95;3.30;;;;;;;7.32;32.82;102978.05;1765259;81;21030;-65
2022/03/28 04:21:07;;;;;;;9.53;2.90;;;;;;;7.35;33.14;102989.81;1764003;81;21042;-66
2022/03/28 04:23:34;;;;;;;3.67;2.58;;;;;;;7.37;33.21;102985.14;1766022;81;21054;-66
2022/03/28 04:26:01;;;;;;;6.05;3.10;;;;;;;7.41;33.19;102989.97;1761680;81;21546;-65
2022/03/28 04:28:30;;;;;;;5.62;3.12;;;;;;;7.46;33.20;102994.84;1768668;81;21019;-65
2022/03/28 04:30:57;;;;;;;5.60;2.67;;;;;;;7.48;33.48;102997.05;1765543;81;21031;-65
2022/03/28 04:33:24;;;;;;;10.45;3.17;;;;;;;7.49;33.93;102991.05;1762252;81;21668;-65
2022/03/28 04:35:51;;;;;;;6.22;3.05;;;;;;;7.52;34.19;102988.55;1763238;81;21003;-65
2022/03/28 04:38:19;;;;;;;5.00;3.08;;;;;;;7.55;34.37;102991.20;1756228;81;21073;-65
2022/03/28 04:40:46;;;;;;;7.53;3.67;;;;;;;7.58;34.51;102993.89;1766622;81;21526;-65
2022/03/28 04:43:14;;;;;;;11.22;3.85;;;;;;;7.59;34.61;102995.63;1765764;81;21091;-65
2022/03/28 04:45:41;;;;;;;5.03;2.92;;;;;;;7.62;34.77;102995.72;1763598;81;21507;-65
2022/03/28 04:48:08;;;;;;;10.63;3.87;;;;;;;7.66;34.79;102995.38;1763199;81;21022;-65
2022/03/28 04:50:35;;;;;;;7.28;3.87;;;;;;;7.69;34.81;102997.61;1755699;81;21585;-65
2022/03/28 04:53:03;;;;;;;10.53;3.85;;;;;;;7.73;34.96;102994.26;1765547;81;21100;-65
2022/03/28 04:55:30;;;;;;;7.50;3.95;;;;;;;7.77;35.21;102990.91;1766573;80;21514;-65
2022/03/28 04:57:57;;;;;;;12.95;4.37;;;;;;;7.84;35.40;102991.94;1772273;80;21101;-66
2022/03/28 05:00:25;;;;;;;6.47;4.08;;;;;;;7.89;35.53;102986.02;1773339;80;21031;-65
2022/03/28 05:02:52;;;;;;;7.58;4.20;;;;;;;7.95;35.71;102986.61;1772067;80;21043;-65
2022/03/28 05:05:19;;;;;;;9.48;4.30;;;;;;;8.01;35.76;102988.06;1771805;80;21049;-66
2022/03/28 05:07:47;;;;;;;6.25;4.28;;;;;;;8.08;35.81;102988.23;1771853;80;21069;-65
2022/03/28 05:10:14;;;;;;;5.90;4.12;;;;;;;8.12;35.87;102988.75;1772172;80;21022;-65
2022/03/28 05:12:42;;;;;;;6.80;3.98;;;;;;;8.21;36.01;102982.91;1773180;80;20987;-66
2022/03/28 05:15:09;;;;;;;5.22;3.70;;;;;;;8.27;36.08;102988.69;1770546;80;21573;-65
2022/03/28 05:17:36;;;;;;;7.05;4.25;;;;;;;8.31;36.13;102987.91;1774237;80;21096;-65
2022/03/28 05:20:08;;;;;;;5.15;3.75;;;;;;;8.36;36.08;102986.31;1771588;80;21014;-65
2022/03/28 05:22:36;;;;;;;4.78;3.55;;;;;;;8.41;36.16;102987.31;1772284;80;20995;-65
2022/03/28 05:25:07;;;;;;;7.50;3.30;;;;;;;8.45;36.08;102986.09;1771836;80;21553;-65
2022/03/28 05:27:43;;;;;;;7.33;3.62;;;;;;;8.52;36.09;102993.59;1772052;80;21522;-65
2022/03/28 05:30:11;;;;;;;4.20;3.33;;;;;;;8.58;36.08;102983.34;1769732;80;21088;-66
2022/03/28 05:32:40;;;;;;;6.10;3.55;;;;;;;8.64;35.96;102986.07;1771170;80;21022;-65
2022/03/28 05:35:08;;;;;;;6.50;3.75;;;;;;;8.68;35.95;102982.70;1775025;80;21026;-66
2022/03/28 05:37:35;;;;;;;7.50;3.40;;;;;;;8.75;35.91;102979.41;1770787;80;21014;-65
2022/03/28 05:40:04;;;;;;;5.78;3.45;;;;;;;8.83;35.81;102983.03;1767622;80;21022;-65
2022/03/28 05:42:32;;;;;;;5.40;3.52;;;;;;;8.90;35.55;102977.13;1772197;80;20994;-65
2022/03/28 05:44:59;;;;;;;6.10;3.37;;;;;;;8.96;35.48;102979.85;1771725;80;21486;-66
2022/03/28 05:47:29;;;;;;;6.50;3.45;;;;;;;9.02;35.36;102981.27;1773842;80;21585;-65
2022/03/28 05:49:56;;;;;;;7.37;3.40;;;;;;;9.07;35.24;102974.42;1774990;80;21058;-66
2022/03/28 05:52:23;;;;;;;5.00;3.17;;;;;;;9.11;35.34;102981.43;1775021;80;21026;-66
2022/03/28 05:54:51;;;;;;;5.90;3.37;;;;;;;9.17;35.21;102980.25;1772428;80;21592;-66
2022/03/28 05:57:18;;;;;;;8.15;3.02;;;;;;;9.22;34.79;102979.92;1771022;80;21097;-66
2022/03/28 05:59:45;;;;;;;4.87;3.08;;;;;;;9.35;34.62;102987.53;1765716;81;20979;-65
2022/03/28 06:02:14;;;;;;;5.50;3.33;;;;;;;9.52;34.25;102983.08;1766471;81;21066;-65
2022/03/28 06:04:41;;;;;;;6.50;3.45;;;;;;;9.81;34.10;102980.56;1766542;81;21010;-65
2022/03/28 06:07:09;;;;;;;6.53;3.60;;;;;;;10.12;33.28;102976.75;1764685;81;21011;-65
2022/03/28 06:09:36;;;;;;;6.60;3.08;;;;;;;10.36;32.56;102976.26;1754865;81;21538;-65
2022/03/28 06:12:05;;;;;;;6.47;3.42;;;;;;;10.64;32.18;102975.77;1763818;81;21073;-65
2022/03/28 06:14:32;;;;;;;5.25;3.12;;;;;;;11.03;31.71;102968.45;1764504;81;21027;-65
2022/03/28 06:16:59;;;;;;;4.70;3.15;;;;;;;11.44;31.10;102981.50;1757724;81;21050;-65
2022/03/28 06:19:28;;;;;;;7.90;3.67;;;;;;;11.78;30.48;102976.63;1763819;81;21018;-65
2022/03/28 06:21:56;;;;;;;5.30;3.37;;;;;;;12.11;29.68;102979.51;1763668;81;21090;-65
2022/03/28 06:24:23;;;;;;;5.65;3.47;;;;;;;12.46;28.72;102978.42;1773331;80;21038;-65
2022/03/28 06:26:50;;;;;;;4.75;2.92;;;;;;;12.79;28.05;102976.87;1766863;81;21086;-65
2022/03/28 06:29:17;;;;;;;7.15;3.00;;;;;;;13.06;26.96;102966.52;1765404;81;21070;-65
2022/03/28 06:31:45;;;;;;;7.53;3.60;;;;;;;13.26;26.09;102964.41;1764502;81;21073;-65
2022/03/28 06:34:12;;;;;;;6.55;3.10;;;;;;;13.41;26.07;102957.48;1765825;81;21057;-65
2022/03/28 06:36:39;;;;;;;5.17;2.80;;;;;;;13.64;25.83;102953.58;1766556;81;21022;-66
2022/03/28 06:39:06;;;;;;;4.75;2.83;;;;;;;13.94;25.47;102957.48;1753104;81;21061;-65
2022/03/28 06:41:33;;;;;;;4.12;2.80;;;;;;;14.25;24.73;102955.27;1765007;81;21022;-65
2022/03/28 06:44:01;;;;;;;6.40;4.25;;;;;;;14.52;24.14;102960.48;1764694;81;21542;-65
2022/03/28 06:46:30;;;;;;;9.43;4.28;;;;;;;14.77;23.76;102955.13;1765626;81;21035;-65
2022/03/28 06:48:57;;;;;;;7.20;5.67;;;;;;;14.97;23.55;102950.23;1766793;81;21038;-65
2022/03/28 06:51:24;;;;;;;9.48;5.17;;;;;;;15.13;23.01;102949.70;1766712;81;21057;-65
2022/03/28 06:53:52;;;;;;;11.00;5.58;;;;;;;15.25;22.74;102943.09;1765432;81;21050;-65
2022/03/28 06:56:19;;;;;;;5.95;4.10;;;;;;;15.34;22.58;102939.08;1763594;81;21510;-65
2022/03/28 06:58:47;;;;;;;5.25;3.92;;;;;;;15.45;22.86;102935.55;1764020;81;21047;-65
2022/03/28 07:01:15;;;;;;;9.13;3.60;;;;;;;15.56;24.54;102940.69;1760056;81;21019;-65
2022/03/28 07:03:43;;;;;;;5.45;3.62;;;;;;;15.61;26.13;102938.91;1765129;81;21019;-65
2022/03/28 07:06:11;;;;;;;6.87;3.47;;;;;;;15.66;26.75;102938.88;1766759;81;21038;-65
2022/03/28 07:08:39;;;;;;;5.12;3.62;;;;;;;15.71;27.14;102937.95;1762546;81;21046;-65
2022/03/28 07:11:08;;;;;;;3.83;2.92;;;;;;;15.78;26.40;102932.22;1765503;81;21069;-65
2022/03/28 07:13:35;;;;;;;5.20;3.00;;;;;;;15.87;26.33;102939.55;1763554;81;21062;-65
2022/03/28 07:16:04;;;;;;;5.45;3.20;;;;;;;15.99;26.02;102935.50;1755517;81;21030;-65
2022/03/28 07:18:34;;;;;;;6.12;3.27;;;;;;;16.10;26.16;102931.02;1770960;81;20999;-66
2022/03/28 07:21:01;;;;;;;5.22;3.37;;;;;;;16.24;26.37;102944.87;1765644;81;21026;-65
2022/03/28 07:23:28;;;;;;;5.37;3.40;;;;;;;16.37;26.21;102937.73;1764600;81;21503;-65
2022/03/28 07:25:56;;;;;;;7.83;4.47;;;;;;;16.51;26.47;102933.66;1767495;81;21023;-65
2022/03/28 07:28:23;;;;;;;10.35;3.85;;;;;;;16.61;27.01;102936.62;1766624;81;21061;-65
2022/03/28 07:30:51;;;;;;;10.00;4.80;;;;;;;16.63;26.92;102935.70;1764311;81;21011;-65
2022/03/28 07:33:19;;;;;;;9.75;4.83;;;;;;;16.62;27.04;102929.16;1761659;81;21518;-65
2022/03/28 07:35:46;;;;;;;10.48;5.53;;;;;;;16.56;27.01;102921.34;1763404;81;21592;-66
2022/03/28 07:38:15;;;;;;;16.73;5.92;;;;;;;16.44;27.13;102918.40;1758029;81;21066;-65
2022/03/28 07:40:43;;;;;;;10.32;5.67;;;;;;;16.24;27.71;102919.92;1766825;81;21054;-65
2022/03/28 07:43:12;;;;;;;9.60;5.87;;;;;;;16.02;28.18;102923.66;1765310;81;20986;-65
2022/03/28 07:45:39;;;;;;;10.53;4.58;;;;;;;15.78;28.89;102919.09;1763649;81;21014;-65
2022/03/28 07:48:07;;;;;;;9.15;4.95;;;;;;;15.55;29.41;102924.97;1763442;81;21019;-65
2022/03/28 07:50:34;;;;;;;9.73;4.42;;;;;;;15.36;29.49;102920.27;1763472;81;21026;-65
2022/03/28 07:53:03;;;;;;;8.20;4.78;;;;;;;15.17;29.63;102912.96;1763691;81;21050;-65
2022/03/28 07:55:31;;;;;;;10.40;4.40;;;;;;;15.02;30.30;102905.64;1764408;81;21038;-65
2022/03/28 07:58:03;;;;;;;8.18;4.80;;;;;;;14.88;30.50;102908.79;1766506;81;21015;-65
2022/03/28 08:00:30;;;;;;;10.30;5.15;;;;;;;14.77;30.88;102909.27;1767041;81;21014;-65
2022/03/28 08:02:58;;;;;;;7.25;4.70;;;;;;;14.66;31.41;102905.39;1765565;81;20998;-65
2022/03/28 08:05:25;;;;;;;7.90;4.10;;;;;;;14.56;31.65;102904.56;1762969;81;21034;-65
2022/03/28 08:07:53;;;;;;;7.50;4.17;;;;;;;14.48;32.07;102901.11;1759232;81;21455;-65
2022/03/28 08:10:21;;;;;;;6.55;4.47;;;;;;;14.41;32.17;102909.85;1763462;81;21089;-65
2022/03/28 08:12:49;;;;;;;6.97;3.52;;;;;;;14.35;32.26;102905.95;1763734;81;21026;-65
2022/03/28 08:15:18;;;;;;;7.53;3.33;;;;;;;14.28;32.17;102904.20;1760910;81;21023;-65
2022/03/28 08:17:45;;;;;;;5.03;3.17;;;;;;;14.23;32.07;102898.53;1766906;81;21070;-65
2022/03/28 08:20:13;;;;;;;7.03;3.45;;;;;;;14.18;32.09;102896.38;1764799;81;21054;-65
2022/03/28 08:22:49;;;;;;;8.40;3.27;;;;;;;14.14;32.13;102886.33;1763854;81;21057;-65
2022/03/28 08:25:17;;;;;;;6.62;3.12;;;;;;;14.10;31.91;102892.45;1763522;81;21058;-65
2022/03/28 08:27:44;;;;;;;5.40;3.08;;;;;;;14.06;32.31;102898.56;1757773;81;21434;-65
2022/03/28 08:30:14;;;;;;;5.08;3.17;;;;;;;14.02;32.47;102890.30;1766615;81;20991;-65
2022/03/28 08:32:42;;;;;;;5.22;2.92;;;;;;;13.98;32.65;102897.72;1765967;81;21010;-66
2022/03/28 08:35:11;;;;;;;9.73;3.05;;;;;;;13.97;32.74;102889.88;1764404;81;21030;-66
2022/03/28 08:37:38;;;;;;;3.27;2.72;;;;;;;13.94;32.54;102888.13;1768946;81;21593;-65
2022/03/28 08:40:07;;;;;;;4.87;3.05;;;;;;;13.88;32.46;102886.83;1759663;81;21517;-64
2022/03/28 08:42:34;;;;;;;3.62;2.50;;;;;;;13.84;32.49;102886.41;1763367;81;20999;-64
2022/03/28 08:45:03;;;;;;;5.78;3.02;;;;;;;13.81;32.41;102887.70;1761966;81;21011;-65
2022/03/28 08:47:30;;;;;;;6.17;2.45;;;;;;;13.78;32.20;102882.06;1766710;81;21065;-64
2022/03/28 08:49:57;;;;;;;7.58;3.15;;;;;;;13.79;32.25;102878.98;1766579;81;20995;-65
2022/03/28 08:52:25;;;;;;;6.25;2.98;;;;;;;13.76;32.89;102880.31;1765244;81;21046;-65
2022/03/28 08:54:52;;;;;;;5.05;2.75;;;;;;;13.78;33.15;102868.98;1764437;81;21550;-65
2022/03/28 08:57:19;;;;;;;4.08;2.52;;;;;;;13.77;33.40;102864.60;1765905;81;20979;-65
2022/03/28 08:59:48;;;;;;;5.60;3.00;;;;;;;13.78;33.32;102869.41;1766693;81;21006;-64
2022/03/28 09:02:41;;;;;;;3.77;2.52;;;;;;;13.77;33.86;102861.10;1766603;81;21062;-64
2022/03/28 09:05:12;;;;;;;5.03;2.40;;;;;;;13.76;33.96;102863.30;1766755;80;21033;-64
2022/03/28 09:07:39;;;;;;;3.70;2.30;;;;;;;13.70;34.41;102853.70;1755399;81;21502;-64
2022/03/28 09:10:13;;;;;;;5.92;2.30;;;;;;;13.69;34.95;102852.40;1767508;80;21072;-64
2022/03/28 09:13:11;;;;;;;3.47;2.50;;;;;;;13.69;35.15;102851.09;1704095;83;21079;-64
2022/03/28 09:15:55;;;;;;;4.60;2.40;;;;;;;13.65;35.03;102837.58;1702856;83;21043;-65
2022/03/28 09:18:35;;;;;;;3.25;2.27;;;;;;;13.62;34.71;102838.45;1702688;83;21483;-64
2022/03/28 09:21:04;;;;;;;6.70;2.40;;;;;;;13.62;34.81;102840.22;1696849;83;21046;-65
2022/03/28 09:23:38;;;;;;;4.30;2.22;;;;;;;13.61;35.12;102830.61;1698469;84;21094;-64
2022/03/28 09:26:13;;;;;;;;;;;;;;;13.61;35.48;102828.00;1699555;84;21021;-64
2022/03/28 09:28:53;;;;;;;4.00;2.40;;;;;;;13.61;35.03;102825.38;1694562;83;20124;-64
2022/03/28 09:31:38;;;;;;;3.42;2.02;;;;;;;13.60;35.55;102818.42;1694461;84;21054;-64
2022/03/28 09:34:16;;;;;;;6.33;2.45;;;;;;;13.61;35.64;102818.41;1699598;83;20975;-64
2022/03/28 09:36:50;;;;;;;4.47;2.50;;;;;;;13.64;35.23;102814.47;1696302;83;21022;-64
2022/03/28 09:39:28;;;;;;;3.20;2.12;;;;;;;13.64;34.70;102807.08;1689297;83;20975;-65
2022/03/28 09:42:10;;;;;;;3.75;2.60;;;;;;;13.62;34.78;102800.98;1699261;83;21066;-64
2022/03/28 09:44:50;;;;;;;4.75;2.20;;;;;;;13.60;34.75;102802.27;1699453;83;20968;-64
2022/03/28 09:47:22;;;;;;;4.53;2.52;;;;;;;13.58;34.69;102799.25;1699465;83;20976;-64
2022/03/28 09:49:52;;;;;;;5.42;2.62;;;;;;;13.56;34.66;102790.53;1725190;81;21038;-64
2022/03/28 09:52:22;;;;;;;6.12;2.65;;;;;;;13.54;35.04;102790.51;1765815;81;21050;-65
2022/03/28 09:54:57;;;;;;;4.65;2.27;;;;;;;13.55;34.95;102784.42;1724926;82;21714;-65
2022/03/28 09:57:32;;;;;;;4.08;1.95;;;;;;;13.57;34.72;102777.88;1723819;82;21959;-64
2022/03/28 10:00:14;;;;;;;3.87;2.22;;;;;;;13.59;34.22;102773.50;1654290;86;21677;-64
2022/03/28 10:02:42;;;;;;;;;;;;;;;13.66;33.68;102775.25;1654643;86;21062;-65
2022/03/28 10:05:10;;;;;;;2.90;2.00;;;;;;;13.71;34.15;102770.86;1655451;86;20135;-64
2022/03/28 10:07:38;;;;;;;4.33;1.98;;;;;;;13.74;34.20;102770.86;1655849;86;21049;-64
2022/03/28 10:10:07;;;;;;;4.05;2.50;;;;;;;13.77;34.88;102766.91;1644352;86;21026;-64
2022/03/28 10:12:36;;;;;;;5.42;3.65;;;;;;;13.75;34.76;102766.92;1638758;86;21510;-64
2022/03/28 10:15:04;;;;;;;5.58;2.40;;;;;;;13.75;34.52;102767.35;1652445;86;21600;-64
2022/03/28 10:17:33;;;;;;;4.53;2.37;;;;;;;13.71;34.65;102756.03;1654471;86;21635;-64
2022/03/28 10:20:00;;;;;;;4.33;2.92;;;;;;;13.70;34.55;102757.36;1652910;86;21050;-64
2022/03/28 10:22:35;;;;;;;7.70;2.47;;;;;;;13.69;34.15;102751.25;1653710;86;21038;-64
2022/03/28 10:25:10;;;;;;;5.97;2.42;;;;;;;13.70;34.71;102756.05;1626922;87;21509;-64
2022/03/28 10:27:37;;;;;;;6.15;2.22;;;;;;;13.71;35.15;102748.61;1623386;87;21117;-64
2022/03/28 10:30:24;;;;;;;4.05;2.60;;;;;;;13.72;35.34;102743.83;1628623;87;21069;-64
2022/03/28 10:36:02;;;;;;;6.43;2.90;;;;;;;13.72;35.60;102733.37;1538886;93;21150;-64
2022/03/28 10:38:29;;;;;;;6.22;2.30;;;;;;;13.70;35.24;102724.66;1527786;93;21131;-64
2022/03/28 10:41:00;;;;;;;4.97;2.47;;;;;;;13.67;35.50;102718.11;1536981;93;21128;-65
2022/03/28 10:43:29;;;;;;;4.73;2.60;;;;;;;13.62;35.16;102717.27;1456863;97;21070;-64
2022/03/28 10:46:04;;;;;;;5.15;2.58;;;;;;;13.61;35.43;102719.02;1427375;99;21105;-64
2022/03/28 10:48:59;;;;;;;5.00;2.70;;;;;;;13.59;35.47;102718.58;1445099;98;21614;-64
2022/03/28 10:51:30;;;;;;;6.15;2.98;;;;;;;13.58;35.53;102711.62;1425724;99;21122;-64
2022/03/28 10:54:05;;;;;;;4.53;2.35;;;;;;;13.57;36.23;102717.70;1415420;99;21140;-64
2022/03/28 10:56:39;;;;;;;5.92;2.55;;;;;;;13.56;36.03;102703.75;1427784;98;21720;-64
2022/03/28 10:59:09;;;;;;;4.87;2.35;;;;;;;13.56;36.30;102706.83;1497570;95;21125;-64
2022/03/28 11:01:54;;;;;;;4.72;2.70;;;;;;;13.54;36.54;102701.58;1504141;92;21085;-64
2022/03/28 11:04:23;;;;;;;4.50;2.40;;;;;;;13.53;36.93;102701.59;1478852;96;21127;-64
2022/03/28 11:07:03;;;;;;;3.70;2.17;;;;;;;13.54;36.86;102692.89;1478536;96;21125;-64
2022/03/28 11:09:43;;;;;;;4.67;2.40;;;;;;;13.54;36.75;102686.34;1476881;96;21109;-65
2022/03/28 11:12:39;;;;;;;5.55;2.72;;;;;;;13.56;36.75;102678.91;1496454;93;21558;-64
2022/03/28 11:15:21;;;;;;;3.77;2.67;;;;;;;13.57;36.61;102666.70;1515426;95;21113;-64
2022/03/28 11:17:59;;;;;;;5.00;2.40;;;;;;;13.59;36.71;102650.56;1515473;93;21077;-64
2022/03/28 11:20:28;;;;;;;6.08;2.80;;;;;;;13.58;37.11;102647.53;1514999;93;21062;-64
2022/03/28 11:23:09;;;;;;;6.47;3.05;;;;;;;13.58;37.34;102650.15;1491510;94;21143;-65
2022/03/28 11:25:44;;;;;;;;;;;;;;;13.57;38.00;102644.47;1517610;93;21104;-65
2022/03/28 11:28:25;;;;;;;5.50;2.58;;;;;;;13.55;38.29;102637.07;1511113;93;20165;-64
2022/03/28 11:31:15;;;;;;;5.95;2.55;;;;;;;13.56;38.39;102628.36;1488940;94;21093;-64
2022/03/28 11:33:44;;;;;;;6.35;3.17;;;;;;;13.58;38.33;102626.61;1535109;91;21158;-64
2022/03/28 11:36:14;;;;;;;6.28;2.72;;;;;;;13.60;38.08;102624.86;1531420;92;21608;-65
2022/03/28 11:38:53;;;;;;;5.40;2.60;;;;;;;13.62;37.90;102616.09;1521297;94;21564;-64
2022/03/28 11:43:55;;;;;;;5.35;2.67;;;;;;;13.68;38.20;102605.60;1494390;95;21543;-65
2022/03/28 11:46:24;;;;;;;4.25;2.45;;;;;;;13.71;38.57;102599.49;1494510;95;21103;-65